Time;durP1;ratioP1;P1;durP2;ratioP2;P2;SDS_P1;SDS_P2;PMS_P1;PMS_P2;Temp;Humidity;BMP_temperature;BMP_pressure;BME280_temperature;BME280_humidity;BME280_pressure;Samples;Min_cycle;Max_cycle;Signal;HPM_P1;HPM_P2
2023/07/01 00:00:15;;;;;;;;;;;18.60;61.40;;;;;;5051057;28;19920;-84
2023/07/01 00:02:41;;;;;;;;;;;18.70;61.10;;;;;;5053276;28;19913;-83
2023/07/01 00:05:09;;;;;;;;;;;18.70;61.00;;;;;;5034323;28;20003;-83
2023/07/01 00:07:35;;;;;;;;;;;18.70;61.50;;;;;;5032772;28;19909;-84
2023/07/01 00:10:01;;;;;;;;;;;18.70;61.90;;;;;;5033791;28;19917;-83
2023/07/01 00:12:26;;;;;;;;;;;18.70;61.80;;;;;;5049281;28;20011;-84
2023/07/01 00:14:52;;;;;;;;;;;18.70;61.80;;;;;;5030968;28;19913;-83
2023/07/01 00:17:18;;;;;;;;;;;18.80;60.90;;;;;;5038133;28;19917;-83
2023/07/01 00:19:43;;;;;;;;;;;18.80;61.10;;;;;;5041265;28;19917;-82
2023/07/01 00:22:09;;;;;;;;;;;18.80;61.00;;;;;;5045890;28;20608;-82
2023/07/01 00:24:34;;;;;;;;;;;18.80;60.90;;;;;;5030636;28;20391;-84
2023/07/01 00:27:00;;;;;;;;;;;18.80;61.40;;;;;;5039233;28;19913;-83
2023/07/01 00:29:25;;;;;;;;;;;18.80;60.60;;;;;;5031898;28;19913;-83
2023/07/01 00:31:51;;;;;;;;;;;18.80;60.80;;;;;;5034054;28;19913;-84
2023/07/01 00:34:16;;;;;;;;;;;18.80;60.90;;;;;;5030764;28;19913;-84
2023/07/01 00:36:42;;;;;;;;;;;18.90;60.40;;;;;;5028980;28;19913;-83
2023/07/01 00:39:07;;;;;;;;;;;18.90;59.60;;;;;;5030544;28;20399;-83
2023/07/01 00:41:33;;;;;;;;;;;18.90;60.00;;;;;;5033302;28;20406;-83
2023/07/01 00:43:58;;;;;;;;;;;19.00;59.20;;;;;;5060265;28;19919;-83
2023/07/01 00:46:24;;;;;;;;;;;18.90;59.00;;;;;;5051617;28;20280;-83
2023/07/01 00:48:49;;;;;;;;;;;18.80;59.30;;;;;;5034836;28;19919;-83
2023/07/01 00:51:15;;;;;;;;;;;18.90;59.00;;;;;;5060866;28;19912;-82
2023/07/01 00:53:40;;;;;;;;;;;18.90;59.40;;;;;;5050559;28;19920;-83
2023/07/01 00:56:06;;;;;;;;;;;18.80;59.10;;;;;;5038621;28;19913;-84
2023/07/01 00:58:32;;;;;;;;;;;18.80;60.00;;;;;;5046393;28;20003;-83
2023/07/01 01:01:00;;;;;;;;;;;18.80;59.90;;;;;;5046411;28;19963;-83
2023/07/01 01:03:33;;;;;;;;;;;18.80;59.70;;;;;;5036675;28;19920;-84
2023/07/01 01:06:10;;;;;;;;;;;19.00;59.60;;;;;;5045212;28;19944;-83
2023/07/01 01:08:54;;;;;;;;;;;18.90;59.70;;;;;;5041935;28;19909;-85
2023/07/01 01:11:20;;;;;;;;;;;18.90;60.60;;;;;;5032955;28;19919;-84
2023/07/01 01:13:46;;;;;;;;;;;18.90;60.20;;;;;;5041116;28;19916;-84
2023/07/01 01:16:12;;;;;;;;;;;18.90;60.20;;;;;;5034376;28;19917;-84
2023/07/01 01:18:39;;;;;;;;;;;18.80;60.60;;;;;;5034745;28;19924;-84
2023/07/01 01:21:05;;;;;;;;;;;18.80;60.90;;;;;;5044493;28;19913;-84
2023/07/01 01:23:34;;;;;;;;;;;18.90;60.00;;;;;;5034047;28;19926;-83
2023/07/01 01:26:07;;;;;;;;;;;18.90;59.50;;;;;;5050250;28;19913;-85
2023/07/01 01:28:36;;;;;;;;;;;18.80;60.10;;;;;;5057929;28;20284;-83
2023/07/01 01:31:02;;;;;;;;;;;18.80;59.60;;;;;;5051083;28;19917;-83
2023/07/01 01:33:27;;;;;;;;;;;18.80;60.10;;;;;;5042407;28;20264;-84
2023/07/01 01:35:54;;;;;;;;;;;18.90;59.60;;;;;;5035327;28;19913;-84
2023/07/01 01:38:26;;;;;;;;;;;19.00;59.20;;;;;;5034451;28;19915;-83
2023/07/01 01:40:56;;;;;;;;;;;18.90;60.40;;;;;;5032718;28;20368;-82
2023/07/01 01:43:30;;;;;;;;;;;18.80;61.10;;;;;;5037472;28;19913;-83
2023/07/01 01:45:55;;;;;;;;;;;18.90;59.70;;;;;;5032424;28;19971;-84
2023/07/01 01:48:21;;;;;;;;;;;18.80;61.30;;;;;;5034241;28;19999;-82
2023/07/01 01:50:48;;;;;;;;;;;18.80;61.00;;;;;;5031494;28;19921;-83
2023/07/01 01:53:14;;;;;;;;;;;18.80;59.90;;;;;;5040678;28;19932;-83
2023/07/01 01:55:40;;;;;;;;;;;18.80;60.10;;;;;;5044387;28;19920;-83
2023/07/01 01:58:06;;;;;;;;;;;18.90;59.90;;;;;;5035973;28;19920;-83
2023/07/01 02:00:33;;;;;;;;;;;19.00;60.10;;;;;;5033868;28;19914;-83
2023/07/01 02:02:59;;;;;;;;;;;18.90;60.20;;;;;;5036885;28;19942;-82
2023/07/01 02:05:24;;;;;;;;;;;18.80;60.10;;;;;;5032951;28;19963;-83
2023/07/01 02:07:50;;;;;;;;;;;18.80;61.00;;;;;;5033172;28;19913;-83
2023/07/01 02:10:15;;;;;;;;;;;18.80;60.70;;;;;;5032011;28;19996;-82
2023/07/01 02:12:41;;;;;;;;;;;18.90;60.30;;;;;;5050724;28;19913;-82
2023/07/01 02:15:07;;;;;;;;;;;18.80;60.70;;;;;;5032269;28;19913;-83
2023/07/01 02:17:32;;;;;;;;;;;18.90;61.20;;;;;;5027421;28;19914;-82
2023/07/01 02:19:57;;;;;;;;;;;18.80;60.60;;;;;;5027955;28;20463;-84
2023/07/01 02:22:23;;;;;;;;;;;18.80;61.20;;;;;;5026570;28;19913;-83
2023/07/01 02:24:48;;;;;;;;;;;18.80;61.20;;;;;;5024919;28;19928;-84
2023/07/01 02:27:14;;;;;;;;;;;18.90;60.90;;;;;;5034584;28;19928;-84
2023/07/01 02:29:39;;;;;;;;;;;18.80;61.50;;;;;;5032177;28;20277;-82
2023/07/01 02:32:05;;;;;;;;;;;18.90;61.10;;;;;;5047340;28;19909;-83
2023/07/01 02:34:31;;;;;;;;;;;18.80;61.00;;;;;;5047300;28;20388;-83
2023/07/01 02:36:56;;;;;;;;;;;18.90;61.60;;;;;;5032157;28;19913;-83
2023/07/01 02:39:21;;;;;;;;;;;18.90;61.00;;;;;;5045202;28;20000;-84
2023/07/01 02:41:47;;;;;;;;;;;18.80;61.10;;;;;;5045014;28;19968;-83
2023/07/01 02:44:12;;;;;;;;;;;18.80;61.80;;;;;;5036272;28;19960;-83
2023/07/01 02:46:38;;;;;;;;;;;18.70;61.60;;;;;;5025382;28;19936;-83
2023/07/01 02:49:04;;;;;;;;;;;18.80;60.80;;;;;;5040256;28;19923;-83
2023/07/01 02:51:29;;;;;;;;;;;18.70;61.00;;;;;;5031484;28;20300;-82
2023/07/01 02:53:55;;;;;;;;;;;18.70;62.10;;;;;;5042135;28;19921;-83
2023/07/01 02:56:20;;;;;;;;;;;18.70;61.60;;;;;;5039004;28;19914;-83
2023/07/01 02:58:46;;;;;;;;;;;18.70;62.00;;;;;;5041412;28;19921;-83
2023/07/01 03:01:13;;;;;;;;;;;18.70;61.30;;;;;;5041896;28;19915;-83
2023/07/01 03:03:39;;;;;;;;;;;18.80;61.60;;;;;;5040385;28;20528;-83
2023/07/01 03:06:04;;;;;;;;;;;18.80;61.70;;;;;;5032656;28;19916;-82
2023/07/01 03:08:30;;;;;;;;;;;18.70;62.20;;;;;;5034359;28;19971;-81
2023/07/01 03:10:55;;;;;;;;;;;18.90;61.00;;;;;;5040931;28;19939;-81
2023/07/01 03:13:21;;;;;;;;;;;18.90;61.30;;;;;;5032817;28;19909;-81
2023/07/01 03:15:46;;;;;;;;;;;18.90;60.60;;;;;;5032559;28;20398;-80
2023/07/01 03:18:12;;;;;;;;;;;18.90;60.60;;;;;;5052239;28;19913;-80
2023/07/01 03:20:37;;;;;;;;;;;18.90;60.00;;;;;;5047253;28;19921;-80
2023/07/01 03:23:03;;;;;;;;;;;18.90;60.80;;;;;;5059215;22;19952;-84
2023/07/01 03:25:28;;;;;;;;;;;19.00;60.80;;;;;;5076364;28;19916;-84
2023/07/01 03:27:54;;;;;;;;;;;18.90;60.80;;;;;;5076733;28;20029;-86
2023/07/01 03:30:28;;;;;;;;;;;19.10;60.10;;;;;;5076951;28;19920;-85
2023/07/01 03:32:54;;;;;;;;;;;19.00;59.90;;;;;;5080786;28;19916;-85
2023/07/01 03:35:20;;;;;;;;;;;19.00;59.80;;;;;;5069617;28;19923;-85
2023/07/01 03:37:45;;;;;;;;;;;19.00;60.30;;;;;;5078241;28;20324;-85
2023/07/01 03:40:11;;;;;;;;;;;19.00;59.50;;;;;;5075620;28;19908;-85
2023/07/01 03:42:37;;;;;;;;;;;19.10;59.20;;;;;;5069561;28;19924;-84
2023/07/01 03:45:04;;;;;;;;;;;19.00;58.60;;;;;;5072315;28;19921;-85
2023/07/01 03:47:30;;;;;;;;;;;19.10;58.30;;;;;;5074842;28;19912;-85
2023/07/01 03:49:55;;;;;;;;;;;19.00;58.70;;;;;;5074321;28;20274;-84
2023/07/01 03:52:21;;;;;;;;;;;19.10;58.60;;;;;;5070225;28;20310;-85
2023/07/01 03:54:46;;;;;;;;;;;19.20;57.70;;;;;;5070778;28;19999;-86
2023/07/01 03:57:12;;;;;;;;;;;19.20;57.70;;;;;;5073945;28;19912;-85
2023/07/01 03:59:37;;;;;;;;;;;19.30;57.60;;;;;;5075288;28;19919;-85
2023/07/01 04:02:05;;;;;;;;;;;19.20;57.60;;;;;;5072608;28;20003;-85
2023/07/01 04:04:30;;;;;;;;;;;19.20;57.70;;;;;;5068162;28;19917;-86
2023/07/01 04:06:57;;;;;;;;;;;19.30;58.00;;;;;;5072230;28;20246;-84
2023/07/01 04:09:22;;;;;;;;;;;19.30;57.80;;;;;;5065234;28;19923;-85
2023/07/01 04:11:48;;;;;;;;;;;19.30;58.00;;;;;;5076662;28;19956;-85
2023/07/01 04:14:15;;;;;;;;;;;19.30;57.80;;;;;;5074348;28;19917;-84
2023/07/01 04:16:42;;;;;;;;;;;19.30;57.80;;;;;;5073326;28;19919;-84
2023/07/01 04:19:08;;;;;;;;;;;19.30;57.80;;;;;;5067477;28;19938;-84
2023/07/01 04:21:33;;;;;;;;;;;19.30;57.70;;;;;;5062224;28;19999;-83
2023/07/01 04:24:00;;;;;;;;;;;19.30;57.60;;;;;;5070071;28;20007;-85
2023/07/01 04:26:27;;;;;;;;;;;19.40;57.70;;;;;;5064682;28;19919;-84
2023/07/01 04:28:52;;;;;;;;;;;19.40;57.90;;;;;;5067549;28;19916;-86
2023/07/01 04:31:18;;;;;;;;;;;19.40;58.60;;;;;;5068747;28;19920;-84
2023/07/01 04:33:44;;;;;;;;;;;19.30;58.10;;;;;;5065963;28;20000;-85
2023/07/01 04:36:13;;;;;;;;;;;19.30;58.20;;;;;;5071383;28;20325;-85
2023/07/01 04:38:38;;;;;;;;;;;19.30;58.80;;;;;;5071160;28;19920;-83
2023/07/01 04:41:05;;;;;;;;;;;19.30;58.70;;;;;;5070072;28;20128;-84
2023/07/01 04:43:31;;;;;;;;;;;19.40;58.40;;;;;;5075434;28;19912;-85
2023/07/01 04:45:56;;;;;;;;;;;19.40;58.40;;;;;;5071304;28;20022;-84
2023/07/01 04:48:21;;;;;;;;;;;19.30;58.70;;;;;;5072096;28;19919;-85
2023/07/01 04:50:47;;;;;;;;;;;19.30;58.70;;;;;;5074731;28;19977;-84
2023/07/01 04:53:12;;;;;;;;;;;19.40;58.70;;;;;;5081261;28;20143;-84
2023/07/01 04:55:38;;;;;;;;;;;19.30;58.60;;;;;;5082183;28;19913;-86
2023/07/01 04:58:03;;;;;;;;;;;19.30;58.70;;;;;;5073721;28;20361;-84
2023/07/01 05:00:29;;;;;;;;;;;19.40;58.80;;;;;;5071225;28;19912;-85
2023/07/01 05:02:54;;;;;;;;;;;19.30;58.80;;;;;;5067273;28;19916;-85
2023/07/01 05:05:20;;;;;;;;;;;19.50;58.20;;;;;;5071233;28;19931;-86
2023/07/01 05:07:46;;;;;;;;;;;19.50;58.20;;;;;;5068913;28;19920;-86
2023/07/01 05:10:11;;;;;;;;;;;19.40;58.80;;;;;;5067856;28;19991;-84
2023/07/01 05:12:37;;;;;;;;;;;19.30;58.70;;;;;;5069448;28;19912;-86
2023/07/01 05:15:02;;;;;;;;;;;19.40;59.00;;;;;;5069431;28;20011;-86
2023/07/01 05:17:28;;;;;;;;;;;19.40;59.10;;;;;;5068636;28;19916;-86
2023/07/01 05:19:54;;;;;;;;;;;19.60;58.00;;;;;;5074424;28;19951;-84
2023/07/01 05:22:19;;;;;;;;;;;19.60;58.20;;;;;;5080916;28;19920;-86
2023/07/01 05:24:44;;;;;;;;;;;19.60;58.10;;;;;;5071305;28;19921;-85
2023/07/01 05:27:10;;;;;;;;;;;19.50;58.40;;;;;;5072714;28;19946;-84
2023/07/01 05:29:35;;;;;;;;;;;19.60;57.90;;;;;;5075778;28;19908;-85
2023/07/01 05:32:02;;;;;;;;;;;19.50;58.60;;;;;;5067479;28;20374;-84
2023/07/01 05:34:29;;;;;;;;;;;19.70;58.00;;;;;;5071136;28;19927;-82
2023/07/01 05:36:54;;;;;;;;;;;19.80;57.80;;;;;;5074877;28;19916;-84
2023/07/01 05:39:20;;;;;;;;;;;19.80;57.60;;;;;;5071675;28;19916;-85
2023/07/01 05:41:45;;;;;;;;;;;19.80;57.70;;;;;;5069621;28;19917;-85
2023/07/01 05:44:11;;;;;;;;;;;19.80;57.50;;;;;;5070978;28;19916;-84
2023/07/01 05:46:38;;;;;;;;;;;19.70;58.20;;;;;;5069126;28;19912;-85
2023/07/01 05:49:03;;;;;;;;;;;19.90;58.80;;;;;;5070041;28;19966;-86
2023/07/01 05:51:32;;;;;;;;;;;19.90;58.10;;;;;;5080886;28;19912;-86
2023/07/01 05:53:58;;;;;;;;;;;19.90;57.60;;;;;;5075763;28;20357;-87
2023/07/01 05:56:23;;;;;;;;;;;20.00;57.40;;;;;;5066106;28;19913;-85
2023/07/01 05:58:52;;;;;;;;;;;20.10;57.40;;;;;;5065941;28;19916;-90
2023/07/01 06:01:21;;;;;;;;;;;20.10;58.10;;;;;;5057235;28;19921;-89
2023/07/01 06:03:46;;;;;;;;;;;20.10;57.90;;;;;;5062307;28;19929;-88
2023/07/01 06:06:11;;;;;;;;;;;20.20;57.50;;;;;;5064309;28;19942;-89
2023/07/01 06:08:37;;;;;;;;;;;20.20;57.40;;;;;;5071460;28;19913;-86
2023/07/01 06:11:02;;;;;;;;;;;20.20;57.90;;;;;;5070787;28;19912;-85
2023/07/01 06:13:28;;;;;;;;;;;20.30;57.50;;;;;;5070637;28;20382;-83
2023/07/01 06:15:53;;;;;;;;;;;20.40;57.40;;;;;;5071196;28;19912;-83
2023/07/01 06:18:19;;;;;;;;;;;20.50;56.80;;;;;;5070798;28;20095;-85
2023/07/01 06:20:44;;;;;;;;;;;20.60;56.20;;;;;;5070588;28;19916;-84
2023/07/01 06:23:10;;;;;;;;;;;20.60;56.40;;;;;;5080947;28;19919;-82
2023/07/01 06:25:35;;;;;;;;;;;20.60;56.80;;;;;;5073220;28;20410;-82
2023/07/01 06:28:00;;;;;;;;;;;20.50;56.70;;;;;;5083701;28;19912;-86
2023/07/01 06:30:29;;;;;;;;;;;20.40;57.00;;;;;;5069531;28;20385;-89
2023/07/01 06:32:58;;;;;;;;;;;20.30;57.30;;;;;;5077033;28;19970;-88
2023/07/01 06:35:23;;;;;;;;;;;20.30;57.20;;;;;;5070701;28;20367;-85
2023/07/01 06:37:49;;;;;;;;;;;20.20;57.60;;;;;;5073208;28;19908;-85
2023/07/01 06:40:14;;;;;;;;;;;20.10;58.50;;;;;;5084730;28;19928;-85
2023/07/01 06:42:40;;;;;;;;;;;20.10;59.60;;;;;;5060963;28;19944;-86
2023/07/01 06:45:06;;;;;;;;;;;20.00;60.80;;;;;;5069803;28;19993;-86
2023/07/01 06:47:31;;;;;;;;;;;19.90;62.20;;;;;;5063674;28;19913;-85
2023/07/01 06:49:59;;;;;;;;;;;19.80;64.50;;;;;;5063591;28;19916;-88
2023/07/01 06:52:25;;;;;;;;;;;19.70;65.50;;;;;;5068642;28;19966;-88
2023/07/01 06:54:50;;;;;;;;;;;19.40;67.60;;;;;;5069907;28;19912;-85
2023/07/01 06:57:16;;;;;;;;;;;19.20;68.70;;;;;;5068974;28;20527;-85
2023/07/01 06:59:41;;;;;;;;;;;19.00;70.40;;;;;;5067786;28;19913;-85
2023/07/01 07:02:06;;;;;;;;;;;18.90;70.80;;;;;;5069193;28;19918;-83
2023/07/01 07:04:32;;;;;;;;;;;18.80;72.70;;;;;;5072357;28;19926;-83
2023/07/01 07:06:58;;;;;;;;;;;18.70;73.70;;;;;;5067196;28;19913;-83
2023/07/01 07:09:23;;;;;;;;;;;18.70;73.40;;;;;;5067559;28;19966;-84
2023/07/01 07:11:51;;;;;;;;;;;18.60;72.90;;;;;;5071960;28;20062;-82
2023/07/01 07:14:17;;;;;;;;;;;18.60;74.10;;;;;;5072873;28;20315;-83
2023/07/01 07:16:46;;;;;;;;;;;18.60;74.10;;;;;;5070846;28;19913;-85
2023/07/01 07:19:12;;;;;;;;;;;18.50;73.70;;;;;;5068248;28;20301;-82
2023/07/01 07:21:38;;;;;;;;;;;18.60;75.00;;;;;;5066855;28;19920;-83
2023/07/01 07:24:03;;;;;;;;;;;18.70;73.10;;;;;;5071023;28;19916;-85
2023/07/01 07:26:29;;;;;;;;;;;18.80;73.40;;;;;;5065908;28;19912;-81
2023/07/01 07:28:54;;;;;;;;;;;18.90;73.10;;;;;;5070593;28;19917;-83
2023/07/01 07:31:20;;;;;;;;;;;18.90;72.80;;;;;;5062305;28;19970;-81
2023/07/01 07:33:45;;;;;;;;;;;19.00;72.00;;;;;;5065043;28;20253;-84
2023/07/01 07:36:10;;;;;;;;;;;19.00;71.70;;;;;;5071935;28;19920;-85
2023/07/01 07:38:36;;;;;;;;;;;18.90;71.10;;;;;;5069938;28;19991;-88
2023/07/01 07:41:02;;;;;;;;;;;18.90;71.00;;;;;;5071233;28;20550;-87
2023/07/01 07:43:27;;;;;;;;;;;18.80;70.90;;;;;;5067490;28;19916;-89
2023/07/01 07:45:53;;;;;;;;;;;18.60;70.70;;;;;;5069002;28;20809;-89
2023/07/01 07:48:18;;;;;;;;;;;18.60;71.60;;;;;;5078690;28;19920;-89
2023/07/01 07:50:44;;;;;;;;;;;18.60;72.00;;;;;;5078961;28;19920;-90
2023/07/01 07:53:25;;;;;;;;;;;;;;;;;;;;;
2023/07/01 07:55:55;;;;;;;;;;;18.80;71.30;;;;;;5076344;28;19987;-88
2023/07/01 07:58:29;;;;;;;;;;;18.80;71.80;;;;;;5076414;28;19913;-88
2023/07/01 08:00:57;;;;;;;;;;;18.90;71.00;;;;;;5077556;28;20011;-88
2023/07/01 08:03:22;;;;;;;;;;;19.00;71.30;;;;;;5064786;28;20362;-87
2023/07/01 08:05:49;;;;;;;;;;;19.10;70.70;;;;;;5065979;28;19972;-88
2023/07/01 08:08:15;;;;;;;;;;;19.20;70.50;;;;;;5074492;28;19917;-82
2023/07/01 08:10:45;;;;;;;;;;;19.20;70.40;;;;;;5061998;28;19912;-84
2023/07/01 08:13:14;;;;;;;;;;;19.40;70.50;;;;;;5070402;28;19925;-85
2023/07/01 08:15:40;;;;;;;;;;;19.50;69.90;;;;;;5078803;28;19913;-85
2023/07/01 08:18:06;;;;;;;;;;;19.50;70.20;;;;;;5075715;28;19920;-84
2023/07/01 08:20:31;;;;;;;;;;;19.40;70.10;;;;;;5071372;28;19920;-87
2023/07/01 08:22:57;;;;;;;;;;;19.40;70.30;;;;;;5070849;28;20039;-89
2023/07/01 08:25:22;;;;;;;;;;;19.30;70.50;;;;;;5074096;28;20286;-88
2023/07/01 08:27:48;;;;;;;;;;;19.30;70.40;;;;;;5075858;28;19912;-85
2023/07/01 08:30:14;;;;;;;;;;;19.30;70.50;;;;;;5089858;28;19921;-84
2023/07/01 08:32:49;;;;;;;;;;;19.30;70.90;;;;;;5076534;28;19924;-89
2023/07/01 08:35:17;;;;;;;;;;;19.30;71.00;;;;;;5063589;28;20411;-87
2023/07/01 08:37:43;;;;;;;;;;;19.40;70.60;;;;;;5078059;28;19919;-87
2023/07/01 08:40:12;;;;;;;;;;;19.50;70.70;;;;;;5066616;28;19912;-87
2023/07/01 08:42:40;;;;;;;;;;;19.50;70.20;;;;;;5064096;28;19920;-86
2023/07/01 08:45:07;;;;;;;;;;;19.60;69.60;;;;;;5065980;28;20318;-89
2023/07/01 08:47:32;;;;;;;;;;;19.60;70.00;;;;;;5067908;28;19942;-90
2023/07/01 08:50:00;;;;;;;;;;;19.60;70.10;;;;;;5070335;28;20029;-90
2023/07/01 08:52:29;;;;;;;;;;;19.50;70.60;;;;;;5060952;28;19969;-85
2023/07/01 08:54:54;;;;;;;;;;;19.40;70.90;;;;;;5064037;28;20017;-91
2023/07/01 08:57:30;;;;;;;;;;;19.60;70.80;;;;;;5063635;28;20094;-88
2023/07/01 09:00:00;;;;;;;;;;;19.60;70.70;;;;;;5102120;22;19925;-83
2023/07/01 09:02:31;;;;;;;;;;;19.70;70.60;;;;;;5064907;28;20030;-86
2023/07/01 09:04:57;;;;;;;;;;;19.70;70.40;;;;;;5053181;28;19984;-84
2023/07/01 09:07:23;;;;;;;;;;;19.60;71.00;;;;;;5061534;28;19964;-87
2023/07/01 09:09:48;;;;;;;;;;;19.70;71.20;;;;;;5051722;28;19926;-85
2023/07/01 09:12:13;;;;;;;;;;;19.60;71.30;;;;;;5052911;28;19924;-88
2023/07/01 09:14:58;;;;;;;;;;;19.60;71.60;;;;;;5048228;28;19996;-87
2023/07/01 09:17:28;;;;;;;;;;;19.70;71.50;;;;;;5047009;28;19934;-87
2023/07/01 09:19:55;;;;;;;;;;;19.70;71.40;;;;;;5047154;28;19917;-88
2023/07/01 09:22:23;;;;;;;;;;;19.50;73.50;;;;;;5053743;28;19920;-87
2023/07/01 09:24:49;;;;;;;;;;;19.50;73.60;;;;;;5063766;22;19974;-87
2023/07/01 09:27:17;;;;;;;;;;;19.50;72.90;;;;;;5068645;28;19953;-89
2023/07/01 09:29:43;;;;;;;;;;;19.40;72.90;;;;;;5067368;28;20438;-87
2023/07/01 09:32:14;;;;;;;;;;;19.50;73.20;;;;;;5067507;28;19951;-89
2023/07/01 09:35:24;;;;;;;;;;;19.50;73.00;;;;;;5055207;28;19951;-88
2023/07/01 09:38:10;;;;;;;;;;;19.50;72.90;;;;;;5029410;28;19913;-89
2023/07/01 09:40:38;;;;;;;;;;;19.50;73.40;;;;;;5051382;28;19909;-88
2023/07/01 09:43:15;;;;;;;;;;;19.60;72.90;;;;;;5053129;28;20388;-87
2023/07/01 09:46:08;;;;;;;;;;;19.50;73.20;;;;;;5053638;28;19971;-88
2023/07/01 09:48:37;;;;;;;;;;;19.70;73.00;;;;;;5039702;28;19952;-88
2023/07/01 09:51:11;;;;;;;;;;;19.70;73.30;;;;;;5041265;28;19913;-89
2023/07/01 09:53:49;;;;;;;;;;;19.80;73.20;;;;;;5049990;28;19913;-89
2023/07/01 09:56:18;;;;;;;;;;;19.80;73.50;;;;;;5047880;28;19913;-86
2023/07/01 09:58:50;;;;;;;;;;;19.90;73.00;;;;;;5046311;28;19912;-85
2023/07/01 10:01:16;;;;;;;;;;;19.80;73.30;;;;;;5043423;28;19946;-84
2023/07/01 10:03:42;;;;;;;;;;;19.70;73.70;;;;;;5040444;28;20332;-87
2023/07/01 10:06:08;;;;;;;;;;;19.80;73.50;;;;;;5044410;28;20428;-85
2023/07/01 10:08:33;;;;;;;;;;;19.50;74.30;;;;;;5048969;28;19955;-84
2023/07/01 10:11:09;;;;;;;;;;;19.50;75.20;;;;;;5047993;28;19924;-84
2023/07/01 10:13:45;;;;;;;;;;;19.40;76.30;;;;;;5053314;28;19913;-85
2023/07/01 10:16:11;;;;;;;;;;;19.40;76.30;;;;;;5038682;28;19913;-85
2023/07/01 10:18:36;;;;;;;;;;;19.30;76.80;;;;;;5054707;28;19912;-85
2023/07/01 10:21:21;;;;;;;;;;;19.30;77.80;;;;;;5046162;28;19917;-85
2023/07/01 10:23:46;;;;;;;;;;;19.50;77.60;;;;;;5054627;28;19921;-84
2023/07/01 10:26:30;;;;;;;;;;;19.50;76.80;;;;;;5048901;28;20001;-85
2023/07/01 10:28:55;;;;;;;;;;;19.50;77.30;;;;;;5047930;28;19912;-84
2023/07/01 10:31:21;;;;;;;;;;;19.50;78.30;;;;;;5052632;28;19912;-85
2023/07/01 10:33:46;;;;;;;;;;;19.40;78.00;;;;;;5058944;28;19912;-84
2023/07/01 10:36:17;;;;;;;;;;;19.50;78.00;;;;;;5052137;28;19913;-87
2023/07/01 10:38:43;;;;;;;;;;;19.60;78.80;;;;;;5044026;28;19982;-83
2023/07/01 10:41:08;;;;;;;;;;;19.70;79.30;;;;;;5044522;28;19913;-83
2023/07/01 10:43:36;;;;;;;;;;;19.80;78.70;;;;;;5061461;28;19912;-83
2023/07/01 10:46:20;;;;;;;;;;;19.80;78.70;;;;;;5058018;28;19920;-87
2023/07/01 10:49:03;;;;;;;;;;;19.70;78.50;;;;;;5056056;28;20007;-86
2023/07/01 10:51:52;;;;;;;;;;;19.70;78.30;;;;;;5061604;28;19943;-84
2023/07/01 10:54:31;;;;;;;;;;;19.60;78.90;;;;;;5049433;28;20024;-84
2023/07/01 10:57:09;;;;;;;;;;;19.60;79.40;;;;;;5055384;28;19971;-87
2023/07/01 10:59:34;;;;;;;;;;;19.80;78.10;;;;;;5047087;28;19930;-87
2023/07/01 11:02:00;;;;;;;;;;;19.80;78.60;;;;;;5049105;28;19913;-87
2023/07/01 11:04:45;;;;;;;;;;;19.90;78.10;;;;;;5051430;28;19932;-86
2023/07/01 11:07:10;;;;;;;;;;;19.70;78.10;;;;;;5043702;28;20007;-86
2023/07/01 11:09:36;;;;;;;;;;;19.90;77.80;;;;;;5039349;28;20565;-86
2023/07/01 11:12:02;;;;;;;;;;;20.10;77.00;;;;;;5045628;28;19913;-86
2023/07/01 11:14:29;;;;;;;;;;;20.10;77.40;;;;;;5060246;28;19959;-84
2023/07/01 11:17:03;;;;;;;;;;;20.10;77.60;;;;;;5046839;28;19917;-84
2023/07/01 11:19:28;;;;;;;;;;;20.30;77.60;;;;;;5061392;28;19921;-85
2023/07/01 11:21:54;;;;;;;;;;;20.50;76.90;;;;;;5041522;28;19954;-84
2023/07/01 11:24:21;;;;;;;;;;;20.70;75.70;;;;;;5049767;28;19967;-84
2023/07/01 11:26:47;;;;;;;;;;;20.70;75.70;;;;;;5044879;28;19935;-83
2023/07/01 11:29:16;;;;;;;;;;;20.50;76.40;;;;;;5046152;28;19917;-85
2023/07/01 11:31:42;;;;;;;;;;;20.40;77.10;;;;;;5043225;28;19958;-86
2023/07/01 11:34:07;;;;;;;;;;;20.30;78.40;;;;;;5046995;28;19912;-85
2023/07/01 11:36:36;;;;;;;;;;;20.20;79.20;;;;;;5049107;28;20271;-84
2023/07/01 11:39:06;;;;;;;;;;;20.10;80.30;;;;;;5068090;28;19931;-84
2023/07/01 11:41:31;;;;;;;;;;;19.90;81.40;;;;;;5045112;28;20378;-83
2023/07/01 11:43:57;;;;;;;;;;;19.70;82.30;;;;;;5049751;28;19924;-84
2023/07/01 11:46:29;;;;;;;;;;;19.70;83.30;;;;;;5051344;28;20002;-84
2023/07/01 11:48:55;;;;;;;;;;;19.60;83.80;;;;;;5052865;28;19921;-84
2023/07/01 11:51:35;;;;;;;;;;;19.60;83.80;;;;;;5051401;28;19970;-84
2023/07/01 11:54:00;;;;;;;;;;;19.40;84.80;;;;;;5049852;28;19913;-83
2023/07/01 11:56:26;;;;;;;;;;;19.40;85.90;;;;;;5048278;28;19912;-84
2023/07/01 11:58:52;;;;;;;;;;;19.40;85.40;;;;;;5054009;28;20003;-83
2023/07/01 12:01:24;;;;;;;;;;;19.40;85.80;;;;;;5049896;28;19952;-84
2023/07/01 12:03:49;;;;;;;;;;;19.30;85.90;;;;;;5047660;28;20337;-84
2023/07/01 12:06:18;;;;;;;;;;;19.10;86.10;;;;;;5046193;28;19920;-83
2023/07/01 12:08:54;;;;;;;;;;;19.00;86.70;;;;;;5046345;28;19917;-84
2023/07/01 12:11:20;;;;;;;;;;;19.00;87.50;;;;;;5050803;28;20303;-84
2023/07/01 12:13:45;;;;;;;;;;;19.00;87.90;;;;;;5050317;28;19928;-84
2023/07/01 12:16:12;;;;;;;;;;;19.00;87.80;;;;;;5051371;28;19916;-84
2023/07/01 12:18:38;;;;;;;;;;;19.00;88.20;;;;;;5063376;28;19909;-84
2023/07/01 12:21:04;;;;;;;;;;;19.10;87.80;;;;;;5057191;28;19921;-85
2023/07/01 12:23:38;;;;;;;;;;;19.00;87.80;;;;;;5049927;28;19947;-82
2023/07/01 12:26:03;;;;;;;;;;;19.10;88.10;;;;;;5037142;28;20409;-83
2023/07/01 12:28:29;;;;;;;;;;;19.10;87.90;;;;;;5045346;28;20044;-83
2023/07/01 12:30:54;;;;;;;;;;;19.10;87.70;;;;;;5046250;28;20374;-84
2023/07/01 12:33:20;;;;;;;;;;;19.20;87.90;;;;;;5051579;28;19939;-83
2023/07/01 12:35:45;;;;;;;;;;;19.10;87.20;;;;;;5045429;28;19925;-83
2023/07/01 12:38:14;;;;;;;;;;;19.10;87.20;;;;;;5042833;28;19921;-83
2023/07/01 12:40:39;;;;;;;;;;;19.10;87.70;;;;;;5044324;28;19920;-83
2023/07/01 12:43:06;;;;;;;;;;;19.10;87.50;;;;;;5050575;28;19917;-83
2023/07/01 12:45:31;;;;;;;;;;;19.10;87.80;;;;;;5041522;28;19916;-83
2023/07/01 12:47:57;;;;;;;;;;;19.30;87.40;;;;;;5047599;28;19916;-83
2023/07/01 12:50:22;;;;;;;;;;;19.30;87.20;;;;;;5046044;28;19913;-84
2023/07/01 12:52:51;;;;;;;;;;;19.30;86.50;;;;;;5041232;28;19920;-83
2023/07/01 12:55:17;;;;;;;;;;;19.30;86.30;;;;;;5040141;28;20005;-84
2023/07/01 12:57:42;;;;;;;;;;;19.40;85.90;;;;;;5047000;28;19956;-83
2023/07/01 13:00:09;;;;;;;;;;;19.50;85.70;;;;;;5042268;28;19913;-83
2023/07/01 13:02:34;;;;;;;;;;;19.30;85.30;;;;;;5042419;28;19917;-84
2023/07/01 13:05:00;;;;;;;;;;;19.30;85.60;;;;;;5055105;28;19917;-83
2023/07/01 13:07:27;;;;;;;;;;;19.40;85.00;;;;;;5048278;28;19927;-84
2023/07/01 13:09:53;;;;;;;;;;;19.50;84.90;;;;;;5045830;28;19920;-82
2023/07/01 13:12:22;;;;;;;;;;;19.50;85.10;;;;;;5044621;28;20272;-84
2023/07/01 13:14:48;;;;;;;;;;;19.50;85.00;;;;;;5053826;28;20016;-84
2023/07/01 13:17:13;;;;;;;;;;;19.60;84.40;;;;;;5054418;28;19955;-85
2023/07/01 13:19:39;;;;;;;;;;;19.60;83.80;;;;;;5067211;28;19920;-84
2023/07/01 13:22:04;;;;;;;;;;;19.70;83.50;;;;;;5049896;28;20019;-85
2023/07/01 13:24:36;;;;;;;;;;;19.70;83.20;;;;;;5051772;28;19925;-84
2023/07/01 13:27:03;;;;;;;;;;;19.70;83.20;;;;;;5053689;28;19932;-84
2023/07/01 13:29:30;;;;;;;;;;;19.70;83.20;;;;;;5056195;28;19927;-85
2023/07/01 13:31:59;;;;;;;;;;;19.80;83.30;;;;;;5059687;28;19916;-83
2023/07/01 13:34:25;;;;;;;;;;;19.80;82.90;;;;;;5051718;28;19920;-84
2023/07/01 13:36:52;;;;;;;;;;;19.80;82.80;;;;;;5056338;28;20059;-83
2023/07/01 13:39:31;;;;;;;;;;;19.90;83.10;;;;;;5054436;28;19928;-83
2023/07/01 13:42:00;;;;;;;;;;;20.10;82.30;;;;;;5046114;28;19923;-82
2023/07/01 13:44:26;;;;;;;;;;;20.50;81.80;;;;;;5055501;28;19919;-85
2023/07/01 13:46:52;;;;;;;;;;;20.80;80.60;;;;;;5057050;28;20291;-84
2023/07/01 13:49:22;;;;;;;;;;;21.10;79.70;;;;;;5053530;28;19912;-85
2023/07/01 13:51:49;;;;;;;;;;;21.20;79.10;;;;;;5074806;28;20342;-84
2023/07/01 13:54:16;;;;;;;;;;;21.50;77.80;;;;;;5063765;28;19932;-85
2023/07/01 13:56:42;;;;;;;;;;;21.60;77.70;;;;;;5060343;28;20435;-85
2023/07/01 13:59:07;;;;;;;;;;;21.70;77.20;;;;;;5056297;28;19940;-88
2023/07/01 14:01:37;;;;;;;;;;;22.00;75.40;;;;;;5051503;28;19916;-89
2023/07/01 14:04:03;;;;;;;;;;;21.90;75.40;;;;;;5048494;28;20494;-88
2023/07/01 14:06:29;;;;;;;;;;;21.80;75.10;;;;;;5050416;28;19917;-89
2023/07/01 14:09:00;;;;;;;;;;;21.80;75.30;;;;;;5043410;28;22771;-89
2023/07/01 14:11:27;;;;;;;;;;;21.80;75.50;;;;;;5050312;28;20082;-88
2023/07/01 14:13:58;;;;;;;;;;;21.60;75.20;;;;;;5051568;28;19931;-88
2023/07/01 14:16:25;;;;;;;;;;;21.60;75.30;;;;;;5050587;28;19992;-87
2023/07/01 14:18:51;;;;;;;;;;;21.50;75.60;;;;;;5046674;28;20290;-88